createdAt,value
2023-01-13T00:00:16.759Z,100176.84
2023-01-13T00:01:48.416Z,100186.50
2023-01-13T00:03:20.585Z,100193.50
2023-01-13T00:04:52.246Z,100168.84
2023-01-13T00:06:26.091Z,100182.16
2023-01-13T00:07:57.783Z,100175.97
2023-01-13T00:09:29.407Z,100172.56
2023-01-13T00:11:01.235Z,100176.13
2023-01-13T00:12:32.906Z,100173.66
2023-01-13T00:14:04.694Z,100169.31
2023-01-13T00:15:36.492Z,100168.47
2023-01-13T00:17:08.214Z,100161.50
2023-01-13T00:18:39.869Z,100161.66
2023-01-13T00:20:12.069Z,100160.78
2023-01-13T00:21:45.068Z,100163.50
2023-01-13T00:23:16.739Z,100167.97
2023-01-13T00:24:48.355Z,100159.16
2023-01-13T00:26:22.527Z,100153.97
2023-01-13T00:27:54.400Z,100154.81
2023-01-13T00:29:26.023Z,100145.13
2023-01-13T00:31:05.250Z,100154.66
2023-01-13T00:32:36.888Z,100148.56
2023-01-13T00:34:08.827Z,100159.09
2023-01-13T00:35:40.499Z,100170.41
2023-01-13T00:37:14.648Z,100173.03
2023-01-13T00:38:47.659Z,100178.22
2023-01-13T00:40:19.534Z,100179.84
2023-01-13T00:42:09.903Z,100168.41
2023-01-13T00:43:42.543Z,100156.91
2023-01-13T00:45:14.354Z,100160.56
2023-01-13T00:46:46.184Z,100164.13
2023-01-13T00:48:19.144Z,100157.22
2023-01-13T00:49:50.777Z,100154.53
2023-01-13T00:51:22.521Z,100143.00
2023-01-13T00:52:55.553Z,100133.31
2023-01-13T00:54:27.205Z,100140.38
2023-01-13T00:55:59.901Z,100150.97
2023-01-13T00:57:31.781Z,100148.25
2023-01-13T00:59:04.106Z,100166.69
2023-01-13T01:00:36.003Z,100167.44
2023-01-13T01:02:07.867Z,100167.38
2023-01-13T01:03:40.158Z,100154.91
2023-01-13T01:05:11.770Z,100167.16
2023-01-13T01:06:43.459Z,100161.88
2023-01-13T01:08:16.428Z,100159.25
2023-01-13T01:09:49.585Z,100139.91
2023-01-13T01:11:23.438Z,100129.28
2023-01-13T01:12:55.127Z,100139.81
2023-01-13T01:14:27.225Z,100143.44
2023-01-13T01:15:59.272Z,100150.56
2023-01-13T01:17:30.927Z,100133.13
2023-01-13T01:19:03.446Z,100143.75
2023-01-13T01:20:36.621Z,100169.22
2023-01-13T01:22:08.294Z,100169.47
2023-01-13T01:23:42.083Z,100162.50
2023-01-13T01:25:13.812Z,100158.16
2023-01-13T01:26:45.563Z,100172.88
2023-01-13T01:28:19.356Z,100163.22
2023-01-13T01:29:51.033Z,100157.38
2023-01-13T01:31:25.252Z,100139.59
2023-01-13T01:33:00.088Z,100144.78
2023-01-13T01:34:31.837Z,100155.38
2023-01-13T01:36:04.269Z,100132.47
2023-01-13T01:37:36.037Z,100120.22
2023-01-13T01:39:09.653Z,100130.75
2023-01-13T01:40:41.431Z,100118.59
2023-01-13T01:42:34.434Z,100139.78
2023-01-13T01:44:28.367Z,100158.28
2023-01-13T01:46:00.072Z,100163.72
2023-01-13T01:47:32.580Z,100173.78
2023-01-13T01:49:10.576Z,100173.78
2023-01-13T01:50:42.257Z,100172.13
2023-01-13T01:52:18.130Z,100181.81
2023-01-13T01:53:51.253Z,100174.91
2023-01-13T01:55:29.407Z,100174.97
2023-01-13T01:57:01.527Z,100175.91
2023-01-13T01:58:41.715Z,100168.25
2023-01-13T02:00:14.229Z,100166.69
2023-01-13T02:01:46.331Z,100177.47
2023-01-13T02:03:18.628Z,100168.06
2023-01-13T02:04:53.388Z,100175.28
2023-01-13T02:06:25.333Z,100172.81
2023-01-13T02:07:58.959Z,100186.16
2023-01-13T02:09:31.050Z,100179.47
2023-01-13T02:11:04.259Z,100183.22
2023-01-13T02:12:37.385Z,100173.84
2023-01-13T02:14:09.156Z,100173.19
2023-01-13T02:15:47.570Z,100180.16
2023-01-13T02:17:28.550Z,100185.56
2023-01-13T02:19:07.807Z,100173.38
2023-01-13T02:21:01.515Z,100176.81
2023-01-13T02:22:49.268Z,100175.16
2023-01-13T02:24:55.268Z,100181.38
2023-01-13T02:27:01.850Z,100184.06
2023-01-13T02:29:12.145Z,100183.47
2023-01-13T02:31:08.112Z,100183.06
2023-01-13T02:32:49.610Z,100176.28
2023-01-13T02:34:29.900Z,100175.63
2023-01-13T02:36:05.072Z,100167.97
2023-01-13T02:37:40.553Z,100170.78
2023-01-13T02:39:16.826Z,100172.69
2023-01-13T02:40:56.653Z,100178.09
2023-01-13T02:42:51.309Z,100176.50
2023-01-13T02:44:28.814Z,100172.25
2023-01-13T02:46:08.068Z,100167.09
2023-01-13T02:47:42.223Z,100162.84
2023-01-13T02:49:20.811Z,100170.03
2023-01-13T02:50:58.063Z,100163.13
2023-01-13T02:52:34.626Z,100164.03
2023-01-13T02:54:10.453Z,100161.47
2023-01-13T02:55:46.814Z,100157.13
2023-01-13T02:57:20.578Z,100158.97
2023-01-13T02:58:55.586Z,100157.25
2023-01-13T03:00:28.691Z,100157.25
2023-01-13T03:02:03.679Z,100149.50
2023-01-13T03:03:36.541Z,100163.50
2023-01-13T03:05:14.412Z,100166.19
2023-01-13T03:06:57.640Z,100161.09
2023-01-13T03:08:42.741Z,100156.75
2023-01-13T03:10:24.962Z,100163.84
2023-01-13T03:12:15.423Z,100168.28
2023-01-13T03:14:04.243Z,100167.50
2023-01-13T03:15:47.690Z,100161.56
2023-01-13T03:17:29.870Z,100159.91
2023-01-13T03:19:14.564Z,100156.47
2023-01-13T03:20:56.285Z,100156.53
2023-01-13T03:22:35.128Z,100154.09
2023-01-13T03:24:11.778Z,100148.91
2023-01-13T03:25:50.986Z,100152.50
2023-01-13T03:27:28.553Z,100164.94
2023-01-13T03:29:06.819Z,100159.75
2023-01-13T03:30:42.287Z,100155.41
2023-01-13T03:32:20.248Z,100160.78
2023-01-13T03:33:57.565Z,100164.38
2023-01-13T03:35:33.077Z,100164.44
2023-01-13T03:37:07.126Z,100167.13
2023-01-13T03:38:43.215Z,100161.16
2023-01-13T03:40:18.758Z,100155.91
2023-01-13T03:41:54.552Z,100159.44
2023-01-13T03:43:50.214Z,100160.38
2023-01-13T03:45:21.902Z,100157.75
2023-01-13T03:47:01.959Z,100155.19
2023-01-13T03:48:35.762Z,100155.06
2023-01-13T03:50:13.218Z,100161.28
2023-01-13T03:51:50.016Z,100154.34
2023-01-13T03:53:27.336Z,100160.63
2023-01-13T03:55:05.154Z,100148.41
2023-01-13T03:56:41.568Z,100154.63
2023-01-13T03:58:17.735Z,100146.91
2023-01-13T03:59:53.313Z,100147.84
2023-01-13T04:01:32.121Z,100149.66
2023-01-13T04:03:09.893Z,100149.72
2023-01-13T04:04:47.287Z,100150.69
2023-01-13T04:06:25.797Z,100149.88
2023-01-13T04:08:07.659Z,100158.63
2023-01-13T04:09:48.300Z,100165.78
2023-01-13T04:11:27.057Z,100157.97
2023-01-13T04:13:02.357Z,100153.63
2023-01-13T04:14:35.582Z,100158.81
2023-01-13T04:16:08.845Z,100161.56
2023-01-13T04:17:40.561Z,100151.97
2023-01-13T04:19:12.214Z,100164.25
2023-01-13T04:20:45.971Z,100157.22
2023-01-13T04:22:19.014Z,100161.63
2023-01-13T04:23:51.808Z,100162.53
2023-01-13T04:25:23.591Z,100156.38
2023-01-13T04:26:56.432Z,100159.97
2023-01-13T04:28:28.096Z,100167.81
2023-01-13T04:29:59.861Z,100158.25
2023-01-13T04:31:31.478Z,100164.41
2023-01-13T04:33:04.387Z,100162.69
2023-01-13T04:34:36.021Z,100163.66
2023-01-13T04:36:08.166Z,100163.59
2023-01-13T04:37:41.217Z,100159.28
2023-01-13T04:39:12.877Z,100167.94
2023-01-13T04:40:44.782Z,100167.81
2023-01-13T04:42:16.380Z,100173.00
2023-01-13T04:43:48.153Z,100164.19
2023-01-13T04:45:19.833Z,100171.09
2023-01-13T04:46:51.597Z,100166.59
2023-01-13T04:48:23.344Z,100170.75
2023-01-13T04:49:55.025Z,100169.78
2023-01-13T04:51:27.399Z,100177.50
2023-01-13T04:53:01.594Z,100173.94
2023-01-13T04:54:33.351Z,100193.94
2023-01-13T04:56:05.505Z,100193.03
2023-01-13T04:57:37.689Z,100192.91
2023-01-13T04:59:10.294Z,100191.91
2023-01-13T05:00:42.289Z,100179.59
2023-01-13T05:02:19.760Z,100168.13
2023-01-13T05:03:51.489Z,100155.75
2023-01-13T05:05:23.191Z,100152.22
2023-01-13T05:06:54.869Z,100159.25
2023-01-13T05:08:27.919Z,100166.25
2023-01-13T05:09:59.634Z,100160.94
2023-01-13T05:11:49.681Z,100161.81
2023-01-13T05:13:41.065Z,100167.69
2023-01-13T05:15:32.597Z,100160.91
2023-01-13T05:17:04.327Z,100161.88
2023-01-13T05:18:35.963Z,100163.69
2023-01-13T05:20:08.901Z,100166.41
2023-01-13T05:21:59.282Z,100178.69
2023-01-13T05:23:50.980Z,100166.41
2023-01-13T05:25:23.093Z,100168.94
2023-01-13T05:26:54.714Z,100168.03
2023-01-13T05:28:26.511Z,100164.56
2023-01-13T05:29:58.331Z,100173.38
2023-01-13T05:31:30.019Z,100165.50
2023-01-13T05:33:01.653Z,100160.38
2023-01-13T05:34:33.590Z,100163.06
2023-01-13T05:36:05.818Z,100164.84
2023-01-13T05:37:37.727Z,100173.56
2023-01-13T05:39:10.744Z,100179.53
2023-01-13T05:41:00.855Z,100168.78
2023-01-13T05:42:50.979Z,100175.22
2023-01-13T05:44:22.552Z,100178.47
2023-01-13T05:45:57.776Z,100184.81
2023-01-13T05:47:29.450Z,100179.75
2023-01-13T05:49:01.678Z,100179.94
2023-01-13T05:50:33.359Z,100184.50
2023-01-13T05:52:09.926Z,100188.97
2023-01-13T05:53:41.658Z,100181.38
2023-01-13T05:55:14.833Z,100183.13
2023-01-13T05:56:46.549Z,100187.47
2023-01-13T05:58:20.205Z,100180.56
2023-01-13T05:59:51.890Z,100180.56
2023-01-13T06:01:23.650Z,100188.47
2023-01-13T06:02:55.357Z,100180.72
2023-01-13T06:04:27.055Z,100181.56
2023-01-13T06:06:01.549Z,100183.28
2023-01-13T06:07:33.400Z,100188.44
2023-01-13T06:09:05.318Z,100192.66
2023-01-13T06:10:38.316Z,100190.72
2023-01-13T06:12:11.194Z,100189.81
2023-01-13T06:13:42.856Z,100190.63
2023-01-13T06:15:14.529Z,100185.44
2023-01-13T06:16:46.277Z,100191.47
2023-01-13T06:18:18.030Z,100196.66
2023-01-13T06:19:50.906Z,100202.66
2023-01-13T06:21:22.579Z,100193.00
2023-01-13T06:22:54.676Z,100193.97
2023-01-13T06:24:26.456Z,100201.91
2023-01-13T06:26:05.460Z,100200.22
2023-01-13T06:27:37.722Z,100201.19
2023-01-13T06:29:10.103Z,100193.50
2023-01-13T06:30:45.729Z,100204.97
2023-01-13T06:32:19.610Z,100202.41
2023-01-13T06:33:57.900Z,100205.91
2023-01-13T06:35:34.651Z,100203.28
2023-01-13T06:37:06.637Z,100200.66
2023-01-13T06:38:42.971Z,100206.81
2023-01-13T06:40:15.510Z,100209.44
2023-01-13T06:42:10.747Z,100194.78
2023-01-13T06:43:42.645Z,100213.91
2023-01-13T06:45:14.514Z,100212.13
2023-01-13T06:46:46.430Z,100207.75
2023-01-13T06:48:20.303Z,100209.50
2023-01-13T06:49:52.373Z,100216.53
2023-01-13T06:51:24.265Z,100218.34
2023-01-13T06:52:56.172Z,100216.66
2023-01-13T06:54:28.059Z,100218.47
2023-01-13T06:55:59.772Z,100217.59
2023-01-13T06:57:32.773Z,100211.59
2023-01-13T06:59:04.490Z,100207.22
2023-01-13T07:00:37.240Z,100213.38
2023-01-13T07:02:09.030Z,100216.03
2023-01-13T07:03:41.055Z,100224.88
2023-01-13T07:05:13.286Z,100218.91
2023-01-13T07:06:45.205Z,100209.19
2023-01-13T07:08:16.875Z,100222.44
2023-01-13T07:09:48.539Z,100216.31
2023-01-13T07:11:20.245Z,100223.41
2023-01-13T07:13:11.915Z,100218.09
2023-01-13T07:15:02.228Z,100221.53
2023-01-13T07:16:33.998Z,100221.53
2023-01-13T07:18:05.920Z,100211.19
2023-01-13T07:19:37.798Z,100208.56
2023-01-13T07:21:13.130Z,100213.06
2023-01-13T07:22:45.236Z,100220.97
2023-01-13T07:24:16.955Z,100218.34
2023-01-13T07:25:49.016Z,100219.25
2023-01-13T07:27:20.657Z,100224.56
2023-01-13T07:28:53.732Z,100218.47
2023-01-13T07:30:25.648Z,100234.19
2023-01-13T07:31:57.328Z,100227.25
2023-01-13T07:33:32.845Z,100221.13
2023-01-13T07:35:05.502Z,100230.78
2023-01-13T07:36:37.511Z,100227.34
2023-01-13T07:38:09.208Z,100231.75
2023-01-13T07:39:40.960Z,100238.81
2023-01-13T07:41:31.939Z,100232.72
2023-01-13T07:43:22.479Z,100243.09
2023-01-13T07:44:56.129Z,100247.53
2023-01-13T07:46:27.815Z,100250.97
2023-01-13T07:47:59.478Z,100243.88
2023-01-13T07:49:31.374Z,100255.19
2023-01-13T07:51:04.377Z,100255.19
2023-01-13T07:52:36.106Z,100246.50
2023-01-13T07:54:08.010Z,100246.50
2023-01-13T07:55:42.262Z,100252.66
2023-01-13T07:57:14.019Z,100246.50
2023-01-13T07:58:50.304Z,100256.16
2023-01-13T08:00:24.083Z,100261.44
2023-01-13T08:01:55.996Z,100250.09
2023-01-13T08:03:27.844Z,100257.13
2023-01-13T08:04:59.514Z,100251.88
2023-01-13T08:06:31.231Z,100247.59
2023-01-13T08:08:03.009Z,100264.22
2023-01-13T08:09:34.883Z,100252.97
2023-01-13T08:11:08.467Z,100258.22
2023-01-13T08:12:58.665Z,100251.06
2023-01-13T08:14:30.472Z,100255.25
2023-01-13T08:16:06.277Z,100257.88
2023-01-13T08:17:38.220Z,100275.19
2023-01-13T08:19:09.910Z,100269.91
2023-01-13T08:20:41.700Z,100268.78
2023-01-13T08:22:13.519Z,100271.38
2023-01-13T08:23:45.526Z,100271.19
2023-01-13T08:25:17.597Z,100275.53
2023-01-13T08:26:49.314Z,100284.25
2023-01-13T08:28:23.856Z,100279.81
2023-01-13T08:29:55.734Z,100273.66
2023-01-13T08:31:28.816Z,100286.69
2023-01-13T08:33:00.789Z,100278.75
2023-01-13T08:34:32.533Z,100269.91
2023-01-13T08:36:06.165Z,100282.03
2023-01-13T08:37:38.167Z,100272.34
2023-01-13T08:39:09.806Z,100282.78
2023-01-13T08:40:41.587Z,100298.59
2023-01-13T08:42:13.220Z,100288.84
2023-01-13T08:43:44.944Z,100309.84
2023-01-13T08:45:17.012Z,100303.47
2023-01-13T08:46:50.059Z,100305.31
2023-01-13T08:48:21.758Z,100300.06
2023-01-13T08:49:53.520Z,100304.44
2023-01-13T08:51:25.261Z,100295.00
2023-01-13T08:52:57.179Z,100299.41
2023-01-13T08:54:28.884Z,100287.25
2023-01-13T08:56:00.539Z,100303.84
2023-01-13T08:57:32.570Z,100306.53
2023-01-13T08:59:04.582Z,100303.00
2023-01-13T09:00:36.389Z,100302.13
2023-01-13T09:02:13.178Z,100299.41
2023-01-13T09:03:44.921Z,100302.63
2023-01-13T09:05:17.825Z,100303.38
2023-01-13T09:06:50.437Z,100298.81
2023-01-13T09:08:22.082Z,100298.59
2023-01-13T09:09:56.128Z,100300.31
2023-01-13T09:11:50.208Z,100294.94
2023-01-13T09:13:21.865Z,100298.38
2023-01-13T09:14:53.526Z,100299.97
2023-01-13T09:16:25.177Z,100309.34
2023-01-13T09:17:58.228Z,100298.84
2023-01-13T09:19:30.426Z,100299.72
2023-01-13T09:21:02.123Z,100303.06
2023-01-13T09:22:36.319Z,100305.66
2023-01-13T09:24:08.580Z,100298.44
2023-01-13T09:25:40.199Z,100287.78
2023-01-13T09:27:12.904Z,100293.09
2023-01-13T09:28:44.655Z,100300.81
2023-01-13T09:30:16.724Z,100302.56
2023-01-13T09:31:48.421Z,100306.13
2023-01-13T09:33:39.976Z,100314.00
2023-01-13T09:35:11.632Z,100312.34
2023-01-13T09:36:43.327Z,100303.50
2023-01-13T09:38:14.992Z,100320.09
2023-01-13T09:39:46.773Z,100321.81
2023-01-13T09:41:55.715Z,100323.66
2023-01-13T09:43:54.404Z,100326.91
2023-01-13T09:45:32.064Z,100325.13
2023-01-13T09:47:07.163Z,100319.81
2023-01-13T09:48:52.087Z,100325.91
2023-01-13T09:50:45.814Z,100334.50
2023-01-13T09:52:21.006Z,100328.56
2023-01-13T09:54:00.857Z,100325.91
2023-01-13T09:55:36.474Z,100329.47
2023-01-13T09:57:10.649Z,100341.63
2023-01-13T09:58:42.758Z,100338.78
2023-01-13T10:00:21.067Z,100332.69
2023-01-13T10:01:59.445Z,100333.19
2023-01-13T10:03:32.656Z,100334.69
2023-01-13T10:05:16.139Z,100346.84
2023-01-13T10:06:51.823Z,100343.19
2023-01-13T10:08:26.877Z,100339.53
2023-01-13T10:10:01.621Z,100342.16
2023-01-13T10:11:57.985Z,100338.72
2023-01-13T10:13:31.261Z,100344.09
2023-01-13T10:15:03.496Z,100342.25
2023-01-13T10:16:42.278Z,100348.44
2023-01-13T10:18:18.488Z,100340.34
2023-01-13T10:19:56.092Z,100349.81
2023-01-13T10:21:48.994Z,100359.13
2023-01-13T10:23:47.173Z,100360.50
2023-01-13T10:25:24.828Z,100361.97
2023-01-13T10:27:03.408Z,100353.91
2023-01-13T10:28:35.016Z,100356.28
2023-01-13T10:30:19.624Z,100346.44
2023-01-13T10:31:52.223Z,100350.19
2023-01-13T10:33:28.353Z,100346.03
2023-01-13T10:35:01.789Z,100314.75
2023-01-13T10:36:34.835Z,100335.97
2023-01-13T10:38:16.159Z,100336.88
2023-01-13T10:39:49.108Z,100351.69
2023-01-13T10:41:25.181Z,100343.00
2023-01-13T10:43:06.430Z,100350.81
2023-01-13T10:44:51.881Z,100355.03
2023-01-13T10:46:23.668Z,100357.81
2023-01-13T10:48:07.361Z,100349.00
2023-01-13T10:49:39.119Z,100354.91
2023-01-13T10:51:18.406Z,100353.97
2023-01-13T10:52:59.664Z,100351.94
2023-01-13T10:54:31.404Z,100350.06
2023-01-13T10:56:04.720Z,100360.50
2023-01-13T10:57:36.982Z,100369.94
2023-01-13T10:59:18.375Z,100364.38
2023-01-13T11:00:59.929Z,100369.19
2023-01-13T11:02:33.538Z,100372.44
2023-01-13T11:04:26.700Z,100363.56
2023-01-13T11:06:00.314Z,100373.41
2023-01-13T11:07:34.891Z,100378.41
2023-01-13T11:09:19.188Z,100374.84
2023-01-13T11:10:53.738Z,100360.88
2023-01-13T11:12:31.217Z,100378.53
2023-01-13T11:14:26.856Z,100386.63
2023-01-13T11:16:04.597Z,100378.25
2023-01-13T11:17:45.339Z,100365.13
2023-01-13T11:19:20.890Z,100368.81
2023-01-13T11:20:54.841Z,100376.84
2023-01-13T11:22:32.045Z,100371.59
2023-01-13T11:24:15.547Z,100382.28
2023-01-13T11:25:52.921Z,100383.25
2023-01-13T11:27:38.226Z,100379.13
2023-01-13T11:29:15.084Z,100379.84
2023-01-13T11:30:54.287Z,100372.72
2023-01-13T11:32:29.136Z,100380.50
2023-01-13T11:34:08.182Z,100383.94
2023-01-13T11:35:44.140Z,100388.25
2023-01-13T11:37:20.373Z,100392.75
2023-01-13T11:38:55.980Z,100391.03
2023-01-13T11:40:34.320Z,100387.75
2023-01-13T11:42:24.466Z,100393.97
2023-01-13T11:44:06.296Z,100391.47
2023-01-13T11:45:42.790Z,100395.19
2023-01-13T11:47:17.005Z,100387.28
2023-01-13T11:48:48.762Z,100384.00
2023-01-13T11:50:31.632Z,100397.16
2023-01-13T11:52:09.522Z,100391.81
2023-01-13T11:53:57.714Z,100385.59
2023-01-13T11:55:37.763Z,100393.97
2023-01-13T11:57:24.312Z,100391.66
2023-01-13T11:59:16.069Z,100379.94
2023-01-13T12:01:07.648Z,100383.25
2023-01-13T12:02:52.905Z,100381.59
2023-01-13T12:04:28.949Z,100381.91
2023-01-13T12:06:15.641Z,100380.94
2023-01-13T12:07:57.341Z,100379.34
2023-01-13T12:09:44.581Z,100383.81
2023-01-13T12:11:26.501Z,100387.59
2023-01-13T12:13:10.881Z,100391.03
2023-01-13T12:15:06.141Z,100395.03
2023-01-13T12:16:46.807Z,100389.50
2023-01-13T12:18:38.218Z,100391.47
2023-01-13T12:20:20.669Z,100388.97
2023-01-13T12:22:02.928Z,100390.19
2023-01-13T12:23:38.755Z,100390.56
2023-01-13T12:25:21.066Z,100394.03
2023-01-13T12:26:57.262Z,100402.06
2023-01-13T12:28:41.226Z,100408.47
2023-01-13T12:30:22.448Z,100429.66
2023-01-13T12:31:55.204Z,100437.91
2023-01-13T12:33:43.879Z,100432.16
2023-01-13T12:35:29.146Z,100431.59
2023-01-13T12:37:09.994Z,100444.84
2023-01-13T12:38:47.985Z,100436.22
2023-01-13T12:40:29.093Z,100455.75
2023-01-13T12:42:27.634Z,100465.19
2023-01-13T12:44:18.413Z,100463.09
2023-01-13T12:45:50.185Z,100452.53
2023-01-13T12:47:33.762Z,100455.88
2023-01-13T12:49:06.727Z,100460.09
2023-01-13T12:50:42.873Z,100460.84
2023-01-13T12:52:18.198Z,100471.47
2023-01-13T12:53:50.340Z,100472.16
2023-01-13T12:55:23.358Z,100468.59
2023-01-13T12:56:55.269Z,100481.59
2023-01-13T12:58:28.883Z,100471.34
2023-01-13T13:00:18.640Z,100474.03
2023-01-13T13:02:00.697Z,100474.97
2023-01-13T13:03:34.878Z,100477.53
2023-01-13T13:05:41.317Z,100481.13
2023-01-13T13:07:16.988Z,100480.66
2023-01-13T13:09:03.662Z,100488.59
2023-01-13T13:10:39.188Z,100490.59
2023-01-13T13:13:04.578Z,100493.78
2023-01-13T13:15:18.925Z,100502.16
2023-01-13T13:16:51.370Z,100495.13
2023-01-13T13:18:28.213Z,100491.00
2023-01-13T13:20:01.362Z,100498.03
2023-01-13T13:22:06.289Z,100505.81
2023-01-13T13:24:04.986Z,100497.13
2023-01-13T13:25:36.709Z,100499.03
2023-01-13T13:27:17.267Z,100504.03
2023-01-13T13:29:05.483Z,100501.41
2023-01-13T13:30:43.512Z,100508.44
2023-01-13T13:32:30.756Z,100500.56
2023-01-13T13:34:13.712Z,100503.38
2023-01-13T13:36:02.599Z,100506.94
2023-01-13T13:38:14.252Z,100516.59
2023-01-13T13:40:04.679Z,100505.31
2023-01-13T13:41:55.793Z,100509.19
2023-01-13T13:44:03.377Z,100510.19
2023-01-13T13:45:53.494Z,100514.72
2023-01-13T13:47:34.259Z,100520.66
2023-01-13T13:49:05.895Z,100530.41
2023-01-13T13:50:46.852Z,100524.31
2023-01-13T13:52:21.568Z,100532.28
2023-01-13T13:53:54.708Z,100536.69
2023-01-13T13:55:29.062Z,100538.25
2023-01-13T13:57:01.213Z,100525.91
2023-01-13T13:58:36.984Z,100534.50
2023-01-13T14:00:20.924Z,100533.53
2023-01-13T14:02:01.114Z,100539.72
2023-01-13T14:03:39.021Z,100538.09
2023-01-13T14:05:18.564Z,100544.97
2023-01-13T14:06:52.865Z,100528.34
2023-01-13T14:08:26.281Z,100543.13
2023-01-13T14:09:59.579Z,100543.13
2023-01-13T14:11:33.296Z,100550.97
2023-01-13T14:13:14.890Z,100550.06
2023-01-13T14:14:47.722Z,100558.84
2023-01-13T14:16:19.807Z,100566.63
2023-01-13T14:17:51.600Z,100565.78
2023-01-13T14:19:30.825Z,100573.59
2023-01-13T14:21:16.652Z,100563.09
2023-01-13T14:22:49.158Z,100561.97
2023-01-13T14:24:22.489Z,100562.13
2023-01-13T14:25:55.578Z,100570.00
2023-01-13T14:27:28.854Z,100575.97
2023-01-13T14:29:03.091Z,100583.75
2023-01-13T14:30:36.064Z,100591.84
2023-01-13T14:32:08.356Z,100588.25
2023-01-13T14:33:43.738Z,100582.94
2023-01-13T14:35:17.840Z,100595.03
2023-01-13T14:36:51.204Z,100600.13
2023-01-13T14:38:22.879Z,100599.81
2023-01-13T14:39:55.369Z,100610.09
2023-01-13T14:41:30.078Z,100606.09
2023-01-13T14:43:03.430Z,100619.38
2023-01-13T14:44:36.543Z,100615.19
2023-01-13T14:46:08.474Z,100613.53
2023-01-13T14:47:40.191Z,100620.41
2023-01-13T14:49:23.917Z,100628.03
2023-01-13T14:50:57.420Z,100622.56
2023-01-13T14:52:31.338Z,100616.22
2023-01-13T14:54:03.075Z,100612.69
2023-01-13T14:55:41.969Z,100625.13
2023-01-13T14:57:27.873Z,100623.41
2023-01-13T14:59:02.313Z,100628.78
2023-01-13T15:00:35.710Z,100630.38
2023-01-13T15:02:46.638Z,100637.31
2023-01-13T15:04:25.822Z,100640.34
2023-01-13T15:05:59.155Z,100644.81
2023-01-13T15:07:32.359Z,100647.59
2023-01-13T15:09:11.764Z,100656.19
2023-01-13T15:10:48.010Z,100662.09
2023-01-13T15:12:29.329Z,100666.34
2023-01-13T15:14:02.459Z,100669.78
2023-01-13T15:15:36.406Z,100669.06
2023-01-13T15:17:15.526Z,100668.97
2023-01-13T15:18:47.971Z,100677.66
2023-01-13T15:20:21.680Z,100683.03
2023-01-13T15:21:54.795Z,100677.94
2023-01-13T15:23:26.666Z,100680.47
2023-01-13T15:24:58.540Z,100688.22
2023-01-13T15:26:32.202Z,100689.94
2023-01-13T15:28:05.844Z,100695.25
2023-01-13T15:29:37.578Z,100699.63
2023-01-13T15:31:09.536Z,100703.03
2023-01-13T15:32:41.419Z,100708.19
2023-01-13T15:34:13.351Z,100707.28
2023-01-13T15:35:48.633Z,100713.47
2023-01-13T15:37:21.740Z,100717.84
2023-01-13T15:38:53.928Z,100711.75
2023-01-13T15:40:30.696Z,100718.81
2023-01-13T15:42:20.992Z,100720.50
2023-01-13T15:44:12.956Z,100721.50
2023-01-13T15:46:04.987Z,100719.94
2023-01-13T15:47:36.815Z,100720.00
2023-01-13T15:49:20.801Z,100719.31
2023-01-13T15:50:52.499Z,100728.13
2023-01-13T15:52:27.443Z,100734.44
2023-01-13T15:54:02.431Z,100735.53
2023-01-13T15:55:37.260Z,100738.31
2023-01-13T15:57:11.364Z,100744.38
2023-01-13T15:58:43.035Z,100738.16
2023-01-13T16:00:17.074Z,100745.97
2023-01-13T16:01:48.815Z,100739.03
2023-01-13T16:03:20.783Z,100744.38
2023-01-13T16:04:54.059Z,100750.56
2023-01-13T16:06:32.456Z,100751.50
2023-01-13T16:08:05.926Z,100757.72
2023-01-13T16:09:37.653Z,100763.84
2023-01-13T16:11:09.737Z,100750.56
2023-01-13T16:12:41.586Z,100758.44
2023-01-13T16:14:13.370Z,100751.41
2023-01-13T16:15:48.190Z,100749.59
2023-01-13T16:17:22.803Z,100761.75
2023-01-13T16:18:55.487Z,100760.25
2023-01-13T16:20:27.694Z,100773.31
2023-01-13T16:21:59.807Z,100775.97
2023-01-13T16:23:32.871Z,100763.09
2023-01-13T16:25:05.248Z,100770.25
2023-01-13T16:26:38.858Z,100776.34
2023-01-13T16:28:19.128Z,100774.16
2023-01-13T16:29:52.158Z,100776.75
2023-01-13T16:31:26.718Z,100790.50
2023-01-13T16:32:58.646Z,100792.16
2023-01-13T16:34:30.321Z,100793.03
2023-01-13T16:36:10.586Z,100797.25
2023-01-13T16:37:47.073Z,100797.47
2023-01-13T16:40:56.939Z,100809.47
2023-01-13T16:42:28.781Z,100799.81
2023-01-13T16:44:05.847Z,100812.19
2023-01-13T16:45:37.622Z,100809.53
2023-01-13T16:47:14.104Z,100807.72
2023-01-13T16:48:46.142Z,100804.97
2023-01-13T16:50:27.134Z,100810.19
2023-01-13T16:51:58.811Z,100813.72
2023-01-13T16:53:30.497Z,100819.84
2023-01-13T16:55:03.777Z,100816.34
2023-01-13T16:56:36.679Z,100828.59
2023-01-13T16:58:16.757Z,100822.47
2023-01-13T16:59:48.385Z,100833.75
2023-01-13T17:01:22.991Z,100837.34
2023-01-13T17:02:54.781Z,100840.00
2023-01-13T17:04:26.508Z,100845.38
2023-01-13T17:06:03.525Z,100844.47
2023-01-13T17:07:35.659Z,100854.00
2023-01-13T17:09:11.612Z,100859.22
2023-01-13T17:10:44.718Z,100857.47
2023-01-13T17:12:16.501Z,100845.19
2023-01-13T17:13:48.336Z,100852.97
2023-01-13T17:15:20.219Z,100851.13
2023-01-13T17:16:53.925Z,100859.00
2023-01-13T17:18:26.597Z,100866.16
2023-01-13T17:19:58.303Z,100864.44
2023-01-13T17:21:30.026Z,100868.09
2023-01-13T17:23:01.802Z,100870.75
2023-01-13T17:24:35.084Z,100876.84
2023-01-13T17:26:15.167Z,100882.16
2023-01-13T17:27:46.656Z,100885.41
2023-01-13T17:29:21.830Z,100888.09
2023-01-13T17:30:54.019Z,100886.41
2023-01-13T17:32:25.822Z,100885.56
2023-01-13T17:33:58.027Z,100880.25
2023-01-13T17:35:29.848Z,100893.47
2023-01-13T17:37:01.536Z,100883.06
2023-01-13T17:38:33.301Z,100884.69
2023-01-13T17:40:06.315Z,100887.13
2023-01-13T17:41:39.314Z,100887.06
2023-01-13T17:43:11.094Z,100889.13
2023-01-13T17:44:42.799Z,100886.41
2023-01-13T17:46:18.473Z,100882.84
2023-01-13T17:47:50.686Z,100885.41
2023-01-13T17:49:22.599Z,100882.78
2023-01-13T17:50:54.460Z,100886.16
2023-01-13T17:52:26.336Z,100885.41
2023-01-13T17:53:58.131Z,100875.84
2023-01-13T17:55:30.144Z,100882.03
2023-01-13T17:57:03.633Z,100879.44
2023-01-13T17:58:35.458Z,100882.03
2023-01-13T18:00:08.592Z,100882.88
2023-01-13T18:01:46.175Z,100882.78
2023-01-13T18:03:18.828Z,100884.56
2023-01-13T18:04:50.539Z,100886.31
2023-01-13T18:06:24.995Z,100888.91
2023-01-13T18:07:56.734Z,100886.31
2023-01-13T18:09:28.401Z,100896.06
2023-01-13T18:11:00.753Z,100902.19
2023-01-13T18:12:34.829Z,100900.50
2023-01-13T18:14:07.034Z,100906.75
2023-01-13T18:15:38.728Z,100898.09
2023-01-13T18:17:10.990Z,100898.94
2023-01-13T18:18:45.618Z,100907.75
2023-01-13T18:20:37.319Z,100914.81